Ubc Canada — 5BYX2 — position and weather

sailwx.info

Track history (hours):
 
Tides and Currents Weather Stations Pressure Air Temp Water Temp Dewpoint Dewpoint Depression Visibility Wind Speed Wind Dir Waves Ship Positions

Ubc Canada

Last reported at 2014-Nov-21 08:04 UTC. Time now 2014-Nov-29 09:42 UTC.
Position N 01°16' E 104°15'.
Warning: this ship's position is 8 days out of date.

Length 132 m; draft 8.3 m.

Type: Cargo ship. MMSI: 212297000.

Date/timePositionNaut miles runAvg speedWind from/ knotsBaromVisibWave heightAir tempDewpointWater temp
2014-Nov-21 08:04N 01°16' E 104°15'5 9.7
2014-Nov-21 07:33N 01°16' E 104°10'10 9.8
2014-Nov-21 06:33N 01°14' E 104°00'7 5.2
2014-Nov-21 05:18N 01°16' E 103°54'0 0.0
2014-Nov-21 04:30N 01°16' E 103°54'0 0.1
2014-Nov-21 03:30N 01°16' E 103°54'0 0.1
2014-Nov-21 02:30N 01°15' E 103°54'0 0.1
2014-Nov-21 01:24N 01°15' E 103°53'0 0.0
2014-Nov-20 23:30N 01°15' E 103°53'0 0.0
2014-Nov-20 22:18N 01°15' E 103°53'0 0.0
2014-Nov-20 21:30N 01°15' E 103°53'0 0.0
2014-Nov-20 20:30N 01°15' E 103°53'4 4.6
2014-Nov-20 19:33N 01°15' E 103°58'9 9.1
2014-Nov-20 18:34N 01°16' E 104°07'  
2014-Nov-14 22:31N 19°08' E 105°59'8 8.2
2014-Nov-14 21:33N 19°14' E 105°54'7 6.8
2014-Nov-14 20:33N 19°20' E 105°51'2 2.2
2014-Nov-14 19:31N 19°21' E 105°49'0 0.0
2014-Nov-14 18:31N 19°21' E 105°49'0 0.0
2014-Nov-14 17:31N 19°21' E 105°49'0 0.0
2014-Nov-14 16:31N 19°21' E 105°49'0 0.0
2014-Nov-14 15:31N 19°21' E 105°49'0 0.0
2014-Nov-14 14:31N 19°21' E 105°49'0 0.0
2014-Nov-14 12:31N 19°21' E 105°49'0 0.0
2014-Nov-14 11:31N 19°21' E 105°49'0 0.0
2014-Nov-14 10:31N 19°21' E 105°49'0 0.0
2014-Nov-14 09:31N 19°21' E 105°49'0 0.0
2014-Nov-14 08:31N 19°21' E 105°49'0 0.0
2014-Nov-14 07:31N 19°21' E 105°49'0 0.0
2014-Nov-14 06:31N 19°21' E 105°49'0 0.0
2014-Nov-14 05:33N 19°21' E 105°49'0 0.0
2014-Nov-14 04:33N 19°21' E 105°49'0 0.0
2014-Nov-14 03:33N 19°21' E 105°49'0 0.0
2014-Nov-14 02:33N 19°21' E 105°49'0 0.0
2014-Nov-14 01:33N 19°21' E 105°49'0 0.0
2014-Nov-14 00:33N 19°21' E 105°49'0 0.0
2014-Nov-13 23:33N 19°21' E 105°49'0 0.0
2014-Nov-13 22:33N 19°21' E 105°49'0 0.0
2014-Nov-13 21:33N 19°21' E 105°49'0 0.0
2014-Nov-13 20:33N 19°21' E 105°49'0 0.0
2014-Nov-13 19:33N 19°21' E 105°49'0 0.0
2014-Nov-13 18:33N 19°21' E 105°49'0 0.0
2014-Nov-13 17:33N 19°21' E 105°49'0 0.0
2014-Nov-13 16:33N 19°21' E 105°49'  
Track history (hours):
 
Tides and Currents Weather Stations Pressure Air Temp Water Temp Dewpoint Dewpoint Depression Visibility Wind Speed Wind Dir Waves Ship Positions

Ubc Canada

Last reported at 2014-Nov-21 08:04 UTC. Time now 2014-Nov-29 09:42 UTC.
Position N 01°16' E 104°15'.
Warning: this ship's position is 8 days out of date.

Length 132 m; draft 8.3 m.

Type: Cargo ship. MMSI: 212297000.

Date/timePositionNaut miles runAvg speedWind from/ knotsBaromVisibWave heightAir tempDewpointWater temp
2014-Nov-21 08:04N 01°16' E 104°15'5 9.7
2014-Nov-21 07:33N 01°16' E 104°10'10 9.8
2014-Nov-21 06:33N 01°14' E 104°00'7 5.2
2014-Nov-21 05:18N 01°16' E 103°54'0 0.0
2014-Nov-21 04:30N 01°16' E 103°54'0 0.1
2014-Nov-21 03:30N 01°16' E 103°54'0 0.1
2014-Nov-21 02:30N 01°15' E 103°54'0 0.1
2014-Nov-21 01:24N 01°15' E 103°53'0 0.0
2014-Nov-20 23:30N 01°15' E 103°53'0 0.0
2014-Nov-20 22:18N 01°15' E 103°53'0 0.0
2014-Nov-20 21:30N 01°15' E 103°53'0 0.0
2014-Nov-20 20:30N 01°15' E 103°53'4 4.6
2014-Nov-20 19:33N 01°15' E 103°58'9 9.1
2014-Nov-20 18:34N 01°16' E 104°07'  
2014-Nov-14 22:31N 19°08' E 105°59'8 8.2
2014-Nov-14 21:33N 19°14' E 105°54'7 6.8
2014-Nov-14 20:33N 19°20' E 105°51'2 2.2
2014-Nov-14 19:31N 19°21' E 105°49'0 0.0
2014-Nov-14 18:31N 19°21' E 105°49'0 0.0
2014-Nov-14 17:31N 19°21' E 105°49'0 0.0
2014-Nov-14 16:31N 19°21' E 105°49'0 0.0
2014-Nov-14 15:31N 19°21' E 105°49'0 0.0
2014-Nov-14 14:31N 19°21' E 105°49'0 0.0
2014-Nov-14 12:31N 19°21' E 105°49'0 0.0
2014-Nov-14 11:31N 19°21' E 105°49'0 0.0
2014-Nov-14 10:31N 19°21' E 105°49'0 0.0
2014-Nov-14 09:31N 19°21' E 105°49'0 0.0
2014-Nov-14 08:31N 19°21' E 105°49'0 0.0
2014-Nov-14 07:31N 19°21' E 105°49'0 0.0
2014-Nov-14 06:31N 19°21' E 105°49'0 0.0
2014-Nov-14 05:33N 19°21' E 105°49'0 0.0
2014-Nov-14 04:33N 19°21' E 105°49'0 0.0
2014-Nov-14 03:33N 19°21' E 105°49'0 0.0
2014-Nov-14 02:33N 19°21' E 105°49'0 0.0
2014-Nov-14 01:33N 19°21' E 105°49'0 0.0
2014-Nov-14 00:33N 19°21' E 105°49'0 0.0
2014-Nov-13 23:33N 19°21' E 105°49'0 0.0
2014-Nov-13 22:33N 19°21' E 105°49'0 0.0
2014-Nov-13 21:33N 19°21' E 105°49'0 0.0
2014-Nov-13 20:33N 19°21' E 105°49'0 0.0
2014-Nov-13 19:33N 19°21' E 105°49'0 0.0
2014-Nov-13 18:33N 19°21' E 105°49'0 0.0
2014-Nov-13 17:33N 19°21' E 105°49'0 0.0
2014-Nov-13 16:33N 19°21' E 105°49'  

Dump ship's entire track history